Time;durP1;ratioP1;P1;durP2;ratioP2;P2;SDS_P1;SDS_P2;PMS_P1;PMS_P2;Temp;Humidity;BMP_temperature;BMP_pressure;BME280_temperature;BME280_humidity;BME280_pressure;Samples;Min_cycle;Max_cycle;Signal;HPM_P1;HPM_P2
2022/03/31 00:00:33;;;;;;;17.10;7.22;;;;;;;15.02;56.68;98276.22;4480034;31;34342;-85
2022/03/31 00:03:04;;;;;;;19.05;6.87;;;;;;;14.80;57.67;98278.03;4492745;31;33929;-84
2022/03/31 00:05:32;;;;;;;13.68;6.85;;;;;;;14.88;57.34;98269.41;4493337;31;33606;-85
2022/03/31 00:08:02;;;;;;;17.27;7.03;;;;;;;14.90;57.35;98278.09;4478967;31;33472;-86
2022/03/31 00:10:32;;;;;;;14.82;6.70;;;;;;;14.86;57.46;98263.41;4477948;31;33860;-86
2022/03/31 00:13:02;;;;;;;20.50;7.12;;;;;;;14.93;57.01;98267.22;4477397;31;33863;-86
2022/03/31 00:15:31;;;;;;;13.48;5.97;;;;;;;14.93;56.47;98266.38;4492972;31;32719;-86
2022/03/31 00:18:00;;;;;;;16.62;7.15;;;;;;;14.94;55.77;98274.19;4491074;31;33647;-86
2022/03/31 00:20:28;;;;;;;14.90;6.82;;;;;;;14.85;55.49;98275.81;4471469;31;33465;-86
2022/03/31 00:22:56;;;;;;;16.48;6.18;;;;;;;14.85;55.13;98274.97;4480568;31;32703;-86
2022/03/31 00:25:23;;;;;;;16.27;5.75;;;;;;;15.02;55.00;98269.06;4490202;31;32885;-85
2022/03/31 00:27:51;;;;;;;15.95;5.95;;;;;;;14.87;55.47;98270.41;4463575;31;33292;-86
2022/03/31 00:30:19;;;;;;;14.95;5.80;;;;;;;14.82;55.37;98261.97;4480583;31;33625;-86
2022/03/31 00:32:46;;;;;;;13.98;8.05;;;;;;;14.88;54.76;98261.44;4479383;31;33780;-86
2022/03/31 00:35:14;;;;;;;17.27;7.55;;;;;;;14.56;55.74;98249.06;4473319;31;32484;-86
2022/03/31 00:37:46;;;;;;;15.48;9.27;;;;;;;14.68;55.06;98247.22;4476126;31;32886;-86
2022/03/31 00:40:15;;;;;;;22.42;10.35;;;;;;;14.85;54.54;98253.72;4491243;31;34544;-86
2022/03/31 00:42:51;;;;;;;18.80;9.13;;;;;;;14.81;54.37;98247.84;4478911;31;34268;-86
2022/03/31 00:45:24;;;;;;;19.02;8.60;;;;;;;14.62;55.19;98253.03;4480151;31;33513;-85
2022/03/31 00:47:54;;;;;;;20.50;9.27;;;;;;;14.78;54.64;98252.59;4492279;31;33567;-85
2022/03/31 00:50:22;;;;;;;28.30;9.48;;;;;;;14.63;54.92;98252.06;4490418;31;33151;-85
2022/03/31 00:52:50;;;;;;;21.92;9.90;;;;;;;14.85;54.02;98245.75;4478363;31;33799;-85
2022/03/31 00:55:37;;;;;;;17.77;9.05;;;;;;;14.94;53.74;98238.81;4492500;31;33759;-85
2022/03/31 00:58:05;;;;;;;19.25;9.65;;;;;;;14.74;54.45;98228.09;4477128;31;32960;-84
2022/03/31 01:00:34;;;;;;;17.00;8.80;;;;;;;14.80;54.20;98234.69;4491432;31;33902;-84
2022/03/31 01:03:03;;;;;;;15.70;8.27;;;;;;;14.76;53.91;98222.63;4491623;31;33518;-85
2022/03/31 01:05:31;;;;;;;21.00;9.38;;;;;;;14.69;54.45;98219.66;4479347;31;32362;-85
2022/03/31 01:07:58;;;;;;;12.40;8.02;;;;;;;14.76;54.36;98219.97;4492358;31;33562;-85
2022/03/31 01:10:26;;;;;;;18.95;8.80;;;;;;;14.84;54.16;98221.00;4477631;31;33889;-84
2022/03/31 01:12:54;;;;;;;15.23;8.82;;;;;;;14.90;53.93;98213.47;4490311;31;33795;-84
2022/03/31 01:15:22;;;;;;;20.40;8.35;;;;;;;14.91;54.06;98216.00;4492652;31;34193;-84
2022/03/31 01:17:50;;;;;;;19.12;8.20;;;;;;;14.92;54.04;98206.22;4492395;31;33914;-85
2022/03/31 01:20:20;;;;;;;18.92;9.85;;;;;;;14.99;53.78;98208.19;4476602;31;33368;-84
2022/03/31 01:22:53;;;;;;;16.90;8.68;;;;;;;14.96;53.95;98203.16;4479403;31;33458;-84
2022/03/31 01:25:20;;;;;;;19.58;8.93;;;;;;;14.84;54.50;98205.06;4478463;31;33233;-84
2022/03/31 01:27:48;;;;;;;20.27;7.97;;;;;;;14.82;54.65;98212.34;4476867;31;33705;-84
2022/03/31 01:30:19;;;;;;;26.00;8.60;;;;;;;14.91;54.44;98210.69;4489636;31;33627;-84
2022/03/31 01:32:47;;;;;;;14.07;8.48;;;;;;;14.93;54.20;98202.59;4480734;31;34941;-84
2022/03/31 01:35:15;;;;;;;16.37;8.07;;;;;;;14.88;54.50;98200.31;4492112;31;33181;-84
2022/03/31 01:37:43;;;;;;;18.50;8.88;;;;;;;14.94;54.32;98191.81;4467720;31;32817;-84
2022/03/31 01:40:12;;;;;;;17.83;8.95;;;;;;;14.96;54.62;98192.53;4465217;31;32884;-85
2022/03/31 01:42:42;;;;;;;22.33;9.13;;;;;;;14.74;55.21;98176.75;4490058;31;33399;-85
2022/03/31 01:45:13;;;;;;;14.63;8.40;;;;;;;14.79;55.10;98190.50;4465280;31;32485;-85
2022/03/31 01:47:42;;;;;;;18.42;8.88;;;;;;;14.67;55.43;98183.56;4476728;31;34968;-85
2022/03/31 01:50:09;;;;;;;16.98;9.05;;;;;;;14.76;55.10;98190.75;4478512;31;32977;-85
2022/03/31 01:52:38;;;;;;;20.83;8.90;;;;;;;14.70;55.31;98192.13;4479030;31;33154;-84
2022/03/31 01:55:07;;;;;;;15.73;7.87;;;;;;;14.81;54.90;98188.53;4477888;31;32393;-85
2022/03/31 01:57:35;;;;;;;18.87;8.38;;;;;;;14.38;56.16;98186.03;4491455;31;33783;-84
2022/03/31 02:00:05;;;;;;;15.63;8.68;;;;;;;14.47;55.65;98185.25;4490987;31;34271;-85
2022/03/31 02:02:40;;;;;;;17.87;7.80;;;;;;;14.40;55.57;98179.63;4478617;31;33257;-83
2022/03/31 02:05:08;;;;;;;10.20;7.43;;;;;;;14.49;55.31;98173.56;4477851;31;34228;-83
2022/03/31 02:07:36;;;;;;;14.68;8.05;;;;;;;14.62;54.99;98177.81;4491173;31;33881;-83
2022/03/31 02:10:13;;;;;;;21.12;8.68;;;;;;;14.66;55.07;98168.59;4477058;31;33861;-83
2022/03/31 02:12:41;;;;;;;20.98;8.05;;;;;;;14.57;55.28;98170.22;4477404;31;34447;-83
2022/03/31 02:15:12;;;;;;;16.65;8.77;;;;;;;14.84;54.56;98167.00;4477378;31;32185;-83
2022/03/31 02:17:39;;;;;;;17.73;8.70;;;;;;;14.52;55.25;98167.97;4477946;31;34125;-83
2022/03/31 02:20:08;;;;;;;14.40;8.40;;;;;;;14.38;55.64;98160.31;4478436;31;32711;-83
2022/03/31 02:22:37;;;;;;;16.92;9.73;;;;;;;14.60;55.07;98154.88;4464299;31;32969;-84
2022/03/31 02:25:09;;;;;;;12.65;7.70;;;;;;;14.93;54.27;98163.56;4490627;31;31892;-84
2022/03/31 02:27:37;;;;;;;14.57;8.53;;;;;;;14.63;55.19;98163.59;4478767;31;32697;-85
2022/03/31 02:30:06;;;;;;;18.95;9.05;;;;;;;14.62;55.24;98159.22;4478203;31;33166;-85
2022/03/31 02:32:35;;;;;;;15.98;8.90;;;;;;;14.77;54.79;98157.91;4477150;31;33983;-86
2022/03/31 02:35:05;;;;;;;16.70;8.85;;;;;;;14.91;54.38;98168.19;4471202;31;32423;-85
2022/03/31 02:37:32;;;;;;;16.30;8.48;;;;;;;14.60;55.20;98165.50;4466602;31;32858;-83
2022/03/31 02:40:00;;;;;;;21.48;9.55;;;;;;;14.52;55.53;98167.97;4463985;31;32384;-83
2022/03/31 02:42:28;;;;;;;18.87;9.68;;;;;;;14.46;55.84;98160.50;4491184;31;33696;-82
2022/03/31 02:44:56;;;;;;;19.80;8.80;;;;;;;14.49;55.87;98164.75;4488853;31;32545;-85
2022/03/31 02:47:23;;;;;;;15.93;8.57;;;;;;;14.54;55.74;98159.91;4477781;31;32689;-85
2022/03/31 02:49:51;;;;;;;16.33;8.75;;;;;;;14.51;55.82;98149.53;4479363;31;33984;-84
2022/03/31 02:52:19;;;;;;;20.60;9.02;;;;;;;14.62;55.44;98146.78;4493903;31;33823;-84
2022/03/31 02:57:33;;;;;;;16.75;9.30;;;;;;;14.52;55.82;98143.22;4490668;31;34220;-84
2022/03/31 03:00:01;;;;;;;17.30;8.32;;;;;;;14.43;56.15;98138.69;4491965;31;33299;-85
2022/03/31 03:02:29;;;;;;;14.23;8.63;;;;;;;14.45;56.24;98139.41;4492735;31;33732;-84
2022/03/31 03:04:57;;;;;;;18.65;8.98;;;;;;;14.41;56.47;98136.16;4479354;31;32138;-84
2022/03/31 03:07:26;;;;;;;17.30;8.95;;;;;;;14.38;56.41;98133.75;4491133;31;33128;-84
2022/03/31 03:09:54;;;;;;;16.73;9.27;;;;;;;14.55;55.87;98141.16;4494414;31;34643;-84
2022/03/31 03:12:22;;;;;;;17.00;8.52;;;;;;;14.44;56.00;98137.72;4481259;31;32652;-84
2022/03/31 03:14:51;;;;;;;20.35;8.55;;;;;;;14.43;55.94;98142.19;4475102;31;32355;-84
2022/03/31 03:17:19;;;;;;;16.85;8.05;;;;;;;14.53;55.51;98132.50;4472508;31;33134;-84
2022/03/31 03:19:46;;;;;;;15.80;8.82;;;;;;;14.57;55.43;98125.94;4493127;31;34167;-85
2022/03/31 03:22:14;;;;;;;22.33;9.75;;;;;;;14.37;56.15;98131.25;4491627;31;34742;-85
2022/03/31 03:24:42;;;;;;;21.87;8.63;;;;;;;14.32;56.22;98127.16;4478024;31;33985;-84
2022/03/31 03:27:09;;;;;;;12.68;8.02;;;;;;;14.32;56.24;98115.72;4490782;31;33621;-85
2022/03/31 03:29:45;;;;;;;15.75;8.30;;;;;;;14.37;55.90;98113.50;4490767;31;33930;-85
2022/03/31 03:32:14;;;;;;;19.42;8.27;;;;;;;14.37;55.83;98116.16;4491902;31;33122;-85
2022/03/31 03:34:42;;;;;;;14.93;8.50;;;;;;;14.25;56.45;98118.06;4479059;31;32357;-84
2022/03/31 03:37:10;;;;;;;12.27;8.57;;;;;;;14.55;55.55;98119.06;4464069;31;33057;-84
2022/03/31 03:39:38;;;;;;;14.23;7.60;;;;;;;14.62;55.19;98106.09;4487748;31;34549;-85
2022/03/31 03:42:07;;;;;;;20.67;9.27;;;;;;;14.37;55.92;98110.84;4490262;31;34493;-84
2022/03/31 03:44:35;;;;;;;18.37;9.05;;;;;;;14.44;55.86;98104.03;4465362;31;32339;-83
2022/03/31 03:47:03;;;;;;;18.40;8.13;;;;;;;14.32;56.23;98105.09;4488330;31;34328;-84
2022/03/31 03:49:31;;;;;;;13.40;7.53;;;;;;;14.34;55.92;98100.50;4489197;31;33660;-84
2022/03/31 03:51:59;;;;;;;15.30;8.23;;;;;;;14.10;56.88;98092.84;4492074;31;34362;-84
2022/03/31 03:54:27;;;;;;;13.62;8.50;;;;;;;14.17;56.66;98088.66;4492535;31;33783;-84
2022/03/31 03:56:55;;;;;;;15.88;8.35;;;;;;;13.96;57.23;98099.31;4476507;31;32295;-84
2022/03/31 03:59:22;;;;;;;15.02;7.75;;;;;;;14.01;57.19;98091.78;4478316;31;33811;-84
2022/03/31 04:01:51;;;;;;;19.87;8.15;;;;;;;14.01;57.16;98094.44;4491272;31;33235;-83
2022/03/31 04:04:19;;;;;;;13.07;8.05;;;;;;;14.06;56.98;98089.59;4466475;31;33384;-83
2022/03/31 04:06:50;;;;;;;14.40;7.82;;;;;;;14.27;56.32;98088.72;4491729;31;33502;-83
2022/03/31 04:09:17;;;;;;;14.93;8.93;;;;;;;14.32;56.04;98091.81;4480782;31;33872;-83
2022/03/31 04:11:45;;;;;;;19.85;8.68;;;;;;;14.30;56.06;98088.47;4491545;31;33748;-85
2022/03/31 04:14:13;;;;;;;10.40;7.53;;;;;;;14.26;55.92;98084.38;4493483;31;34388;-85
2022/03/31 04:16:40;;;;;;;17.23;7.45;;;;;;;14.05;56.73;98079.94;4492560;31;34226;-84
2022/03/31 04:19:08;;;;;;;19.98;9.10;;;;;;;14.19;56.31;98085.88;4479665;31;34669;-85
2022/03/31 04:21:37;;;;;;;14.93;8.20;;;;;;;14.14;56.42;98083.59;4480339;31;33465;-84
2022/03/31 04:24:05;;;;;;;15.43;7.90;;;;;;;14.26;56.19;98076.41;4476073;31;33291;-84
2022/03/31 04:26:34;;;;;;;15.75;8.20;;;;;;;14.20;56.11;98083.09;4493693;31;33611;-83
2022/03/31 04:29:02;;;;;;;19.12;10.05;;;;;;;14.21;56.06;98089.25;4492370;31;34128;-83
2022/03/31 04:31:29;;;;;;;20.75;8.88;;;;;;;14.30;55.49;98080.50;4479800;31;33095;-83
2022/03/31 04:33:57;;;;;;;16.20;7.32;;;;;;;14.15;55.83;98076.47;4451956;31;34143;-83
2022/03/31 04:36:26;;;;;;;19.98;8.32;;;;;;;14.14;56.00;98090.72;4491315;31;33569;-83
2022/03/31 04:38:53;;;;;;;17.87;9.30;;;;;;;14.05;56.44;98081.75;4478275;31;33375;-83
2022/03/31 04:41:21;;;;;;;15.10;8.63;;;;;;;14.06;56.53;98086.94;4490258;31;32374;-83
2022/03/31 04:43:50;;;;;;;14.87;8.45;;;;;;;14.29;55.98;98084.09;4491725;31;33445;-82
2022/03/31 04:46:18;;;;;;;14.30;8.70;;;;;;;14.17;56.18;98069.25;4490547;31;33183;-83
2022/03/31 04:48:46;;;;;;;16.35;8.48;;;;;;;14.41;55.37;98072.44;4463752;31;33401;-83
2022/03/31 04:51:14;;;;;;;15.40;7.22;;;;;;;14.24;55.76;98068.59;4478105;31;32480;-82
2022/03/31 04:53:41;;;;;;;18.67;8.88;;;;;;;14.05;56.50;98064.03;4487733;31;33936;-84
2022/03/31 04:56:09;;;;;;;16.02;8.38;;;;;;;14.16;56.46;98071.06;4490168;31;34263;-84
2022/03/31 04:58:37;;;;;;;13.30;7.93;;;;;;;14.15;56.25;98068.53;4488869;31;33723;-84
2022/03/31 05:01:04;;;;;;;15.30;8.07;;;;;;;14.13;56.64;98063.34;4490730;31;32713;-84
2022/03/31 05:03:32;;;;;;;22.98;7.75;;;;;;;14.20;56.60;98074.31;4491220;31;34056;-87
2022/03/31 05:06:01;;;;;;;13.93;9.60;;;;;;;14.33;56.27;98066.94;4491487;31;34525;-87
2022/03/31 05:08:29;;;;;;;16.67;9.93;;;;;;;14.21;56.32;98068.00;4467315;31;33997;-86
2022/03/31 05:10:57;;;;;;;20.40;9.32;;;;;;;14.39;55.80;98061.12;4493081;31;32789;-85
2022/03/31 05:13:25;;;;;;;22.08;9.45;;;;;;;14.48;55.61;98060.34;4486797;31;33010;-85
2022/03/31 05:15:55;;;;;;;21.30;8.38;;;;;;;14.29;55.57;98065.53;4476853;31;33976;-85
2022/03/31 05:18:23;;;;;;;16.42;8.77;;;;;;;13.99;56.57;98069.00;4475495;31;34091;-84
2022/03/31 05:20:50;;;;;;;18.70;9.13;;;;;;;13.83;57.35;98069.47;4490815;31;33266;-85
2022/03/31 05:23:18;;;;;;;15.00;9.07;;;;;;;14.11;56.31;98067.97;4476900;31;33757;-85
2022/03/31 05:25:47;;;;;;;15.82;9.20;;;;;;;13.85;57.47;98067.50;4493284;31;34609;-85
2022/03/31 05:28:15;;;;;;;16.00;8.45;;;;;;;13.93;57.68;98070.38;4480283;31;33732;-85
2022/03/31 05:30:43;;;;;;;15.13;9.07;;;;;;;14.04;57.52;98066.78;4492052;31;33024;-84
2022/03/31 05:33:12;;;;;;;18.05;9.32;;;;;;;13.96;57.82;98067.47;4466554;31;33366;-87
2022/03/31 05:35:40;;;;;;;20.48;9.85;;;;;;;13.98;57.79;98065.50;4489130;31;34012;-84
2022/03/31 05:38:07;;;;;;;23.27;11.15;;;;;;;14.22;57.11;98065.22;4463199;31;33466;-83
2022/03/31 05:40:36;;;;;;;18.80;10.25;;;;;;;14.36;56.22;98064.03;4476804;31;33418;-82
2022/03/31 05:43:04;;;;;;;17.83;9.25;;;;;;;14.07;57.17;98063.88;4477728;31;32454;-83
2022/03/31 05:45:31;;;;;;;17.62;9.38;;;;;;;14.00;57.73;98063.56;4480039;31;33827;-83
2022/03/31 05:47:59;;;;;;;23.40;10.20;;;;;;;13.97;57.97;98066.50;4490296;31;34689;-83
2022/03/31 05:50:27;;;;;;;16.70;9.40;;;;;;;14.00;57.85;98073.31;4491832;31;34552;-83
2022/03/31 05:52:55;;;;;;;22.65;11.38;;;;;;;14.07;57.50;98064.72;4478148;31;31778;-83
2022/03/31 05:55:22;;;;;;;21.92;11.73;;;;;;;14.07;57.54;98059.41;4490065;31;33531;-83
2022/03/31 05:57:50;;;;;;;24.55;11.73;;;;;;;13.95;58.35;98060.44;4464982;31;32684;-83
2022/03/31 06:00:19;;;;;;;24.73;12.70;;;;;;;14.08;58.10;98063.75;4479365;31;33476;-83
2022/03/31 06:02:49;;;;;;;18.83;11.50;;;;;;;13.99;58.29;98069.84;4489671;31;32600;-83
2022/03/31 06:05:19;;;;;;;22.37;12.73;;;;;;;13.83;59.51;98075.63;4479074;31;32650;-83
2022/03/31 06:07:48;;;;;;;27.00;13.52;;;;;;;13.88;59.54;98074.38;4487143;31;33419;-83
2022/03/31 06:10:15;;;;;;;21.55;13.05;;;;;;;13.97;59.13;98076.25;4476434;31;33773;-83
2022/03/31 06:12:43;;;;;;;24.95;12.40;;;;;;;14.13;58.52;98066.00;4478345;31;32792;-83
2022/03/31 06:15:11;;;;;;;25.23;13.62;;;;;;;14.27;58.00;98070.97;4476398;31;32683;-83
2022/03/31 06:17:41;;;;;;;23.77;13.98;;;;;;;14.22;58.15;98059.91;4491871;31;33617;-83
2022/03/31 06:20:10;;;;;;;33.45;15.27;;;;;;;14.25;58.39;98069.44;4476539;31;33598;-84
2022/03/31 06:22:38;;;;;;;31.35;12.52;;;;;;;14.06;59.52;98070.19;4472778;31;32809;-84
2022/03/31 06:25:12;;;;;;;23.45;13.13;;;;;;;14.27;58.87;98083.41;4474522;31;33518;-84
2022/03/31 06:27:40;;;;;;;22.50;12.37;;;;;;;14.07;59.52;98087.78;4490223;31;33736;-84
2022/03/31 06:30:08;;;;;;;19.95;12.70;;;;;;;13.94;60.26;98082.66;4477966;31;33063;-84
2022/03/31 06:32:37;;;;;;;19.83;11.77;;;;;;;13.83;60.67;98090.69;4464359;31;32206;-84
2022/03/31 06:35:05;;;;;;;22.42;12.68;;;;;;;13.73;61.02;98095.09;4477599;31;34540;-84
2022/03/31 06:37:35;;;;;;;23.17;12.70;;;;;;;13.76;61.15;98090.34;4477434;31;33051;-83
2022/03/31 06:40:05;;;;;;;26.67;11.90;;;;;;;13.93;60.71;98091.59;4489228;31;34431;-83
2022/03/31 06:42:33;;;;;;;23.02;13.27;;;;;;;13.81;61.65;98103.22;4478495;31;33407;-83
2022/03/31 06:45:01;;;;;;;25.83;12.85;;;;;;;14.06;60.38;98096.72;4462149;31;34085;-82
2022/03/31 06:47:48;;;;;;;22.50;11.25;;;;;;;13.98;60.46;98099.16;4491778;31;36366;-83
2022/03/31 06:50:16;;;;;;;24.12;11.77;;;;;;;13.85;60.88;98107.31;4477642;31;32949;-83
2022/03/31 06:52:44;;;;;;;21.15;13.05;;;;;;;13.96;60.47;98107.28;4477033;32;32800;-83
2022/03/31 06:55:12;;;;;;;29.37;14.60;;;;;;;14.07;60.50;98104.53;4493695;31;33192;-83
2022/03/31 06:57:40;;;;;;;22.02;12.60;;;;;;;13.96;61.08;98111.75;4491741;31;33530;-83
2022/03/31 07:00:08;;;;;;;29.65;13.50;;;;;;;13.93;61.51;98107.53;4482835;31;32889;-82
2022/03/31 07:02:36;;;;;;;22.48;12.75;;;;;;;13.87;62.06;98102.75;4466021;31;33665;-83
2022/03/31 07:05:04;;;;;;;25.98;11.20;;;;;;;13.97;61.36;98102.81;4492619;31;34210;-83
2022/03/31 07:07:31;;;;;;;33.00;13.18;;;;;;;13.84;61.99;98108.28;4490055;31;33742;-83
2022/03/31 07:10:01;;;;;;;23.55;12.18;;;;;;;13.83;62.12;98090.69;4479980;31;33799;-82
2022/03/31 07:12:29;;;;;;;20.90;11.40;;;;;;;13.80;61.87;98093.59;4489546;31;33941;-83
2022/03/31 07:14:56;;;;;;;18.48;11.32;;;;;;;13.78;61.91;98092.91;4475535;31;32895;-82
2022/03/31 07:17:24;;;;;;;19.98;11.57;;;;;;;13.72;62.45;98093.38;4477773;31;32601;-82
2022/03/31 07:19:51;;;;;;;26.85;12.20;;;;;;;13.54;63.24;98086.00;4476859;31;33883;-82
2022/03/31 07:22:19;;;;;;;30.77;13.13;;;;;;;13.66;63.62;98091.25;4477294;31;33066;-82
2022/03/31 07:24:48;;;;;;;27.08;13.05;;;;;;;13.12;65.23;98087.69;4492025;31;33971;-82
2022/03/31 07:27:15;;;;;;;25.02;14.23;;;;;;;13.03;66.21;98091.94;4493540;31;33618;-82
2022/03/31 07:29:43;;;;;;;22.05;13.77;;;;;;;13.00;66.42;98094.81;4487260;31;33893;-82
2022/03/31 07:32:11;;;;;;;28.83;14.30;;;;;;;13.17;66.75;98093.47;4478524;31;32511;-82
2022/03/31 07:34:39;;;;;;;21.67;13.98;;;;;;;12.83;67.69;98087.41;4491916;31;34077;-82
2022/03/31 07:37:07;;;;;;;30.05;13.02;;;;;;;13.05;67.19;98099.75;4493362;31;33981;-82
2022/03/31 07:39:35;;;;;;;17.58;10.98;;;;;;;13.08;65.89;98094.22;4479419;31;33469;-82
2022/03/31 07:42:04;;;;;;;25.55;12.82;;;;;;;12.65;67.06;98097.66;4476907;31;32470;-82
2022/03/31 07:44:31;;;;;;;26.48;11.23;;;;;;;12.59;67.62;98092.00;4492020;31;33850;-81
2022/03/31 07:46:59;;;;;;;25.37;13.00;;;;;;;12.70;67.68;98089.34;4475243;31;32938;-82
2022/03/31 07:49:27;;;;;;;26.80;12.25;;;;;;;12.79;67.10;98093.91;4477131;31;33132;-82
2022/03/31 07:52:01;;;;;;;23.33;13.38;;;;;;;13.11;66.51;98088.69;4488302;31;34187;-82
2022/03/31 07:54:29;;;;;;;23.70;13.62;;;;;;;13.10;66.92;98086.97;4493168;31;33415;-82
2022/03/31 07:56:56;;;;;;;21.00;12.65;;;;;;;13.44;65.79;98078.97;4491343;31;34498;-82
2022/03/31 07:59:29;;;;;;;26.20;13.70;;;;;;;13.53;65.34;98079.03;4477045;31;33612;-81
2022/03/31 08:01:57;;;;;;;21.33;12.95;;;;;;;13.15;66.93;98083.94;4487944;31;33732;-82
2022/03/31 08:04:25;;;;;;;20.35;12.60;;;;;;;12.57;68.79;98092.09;4479853;31;33513;-82
2022/03/31 08:06:53;;;;;;;24.63;12.35;;;;;;;12.97;67.69;98092.44;4479206;31;33441;-82
2022/03/31 08:09:21;;;;;;;23.17;13.43;;;;;;;12.53;69.66;98096.81;4476955;31;33199;-81
2022/03/31 08:11:50;;;;;;;26.25;12.50;;;;;;;12.93;67.93;98085.69;4490326;31;34131;-82
2022/03/31 08:14:19;;;;;;;25.42;13.95;;;;;;;12.74;69.19;98086.31;4491618;31;34602;-82
2022/03/31 08:16:48;;;;;;;19.00;12.45;;;;;;;12.10;71.75;98090.53;4478491;31;33427;-81
2022/03/31 08:19:17;;;;;;;18.42;12.93;;;;;;;12.56;70.60;98072.75;4493328;31;34097;-82
2022/03/31 08:21:46;;;;;;;22.73;13.02;;;;;;;12.46;70.37;98066.50;4492494;31;33214;-82
2022/03/31 08:24:15;;;;;;;29.10;14.30;;;;;;;12.59;69.54;98068.19;4488704;31;32271;-82
2022/03/31 08:26:46;;;;;;;22.92;14.20;;;;;;;12.40;71.00;98060.84;4491305;31;33772;-83
2022/03/31 08:29:13;;;;;;;30.33;15.25;;;;;;;12.28;71.57;98054.69;4478143;31;33033;-83
2022/03/31 08:31:41;;;;;;;33.30;14.38;;;;;;;12.64;70.21;98044.81;4473619;31;32526;-83
2022/03/31 08:34:09;;;;;;;31.87;14.30;;;;;;;12.79;69.39;98036.47;4494199;31;33670;-82
2022/03/31 08:36:37;;;;;;;27.85;14.85;;;;;;;12.68;70.37;98048.91;4490070;31;33193;-83
2022/03/31 08:39:05;;;;;;;32.05;14.70;;;;;;;12.46;71.21;98045.31;4482992;31;32766;-82
2022/03/31 08:41:33;;;;;;;29.50;16.27;;;;;;;12.47;72.07;98049.63;4489063;31;32898;-83
2022/03/31 08:44:01;;;;;;;31.55;15.40;;;;;;;12.40;72.29;98037.88;4466589;31;32962;-83
2022/03/31 08:46:31;;;;;;;28.65;14.95;;;;;;;12.87;70.98;98033.22;4475157;31;33240;-82
2022/03/31 08:49:00;;;;;;;30.40;15.40;;;;;;;12.47;71.43;98039.06;4477903;31;32640;-82
2022/03/31 08:51:28;;;;;;;24.67;14.35;;;;;;;12.97;70.35;98038.62;4478145;31;32637;-83
2022/03/31 08:53:56;;;;;;;26.80;15.85;;;;;;;13.18;70.06;98036.00;4491745;31;34521;-83
2022/03/31 08:56:24;;;;;;;36.45;15.27;;;;;;;13.06;70.21;98025.44;4492215;31;33778;-82
2022/03/31 08:59:11;;;;;;;28.12;14.63;;;;;;;12.61;71.26;98026.53;4489599;31;34476;-83
2022/03/31 09:01:39;;;;;;;23.73;14.30;;;;;;;12.76;71.75;98026.13;4462847;31;32061;-82
2022/03/31 09:04:18;;;;;;;24.50;15.05;;;;;;;13.24;69.93;98017.81;4478999;31;33480;-82
2022/03/31 09:06:48;;;;;;;29.48;14.60;;;;;;;12.45;73.47;98016.34;4475283;31;32917;-82
2022/03/31 09:09:17;;;;;;;23.38;13.75;;;;;;;12.79;71.69;98011.81;4481533;31;32550;-82
2022/03/31 09:11:50;;;;;;;24.50;13.32;;;;;;;12.64;72.03;98010.41;4492067;31;33662;-82
2022/03/31 09:14:27;;;;;;;27.10;14.43;;;;;;;12.73;72.64;98007.00;4492121;31;34399;-82
2022/03/31 09:16:55;;;;;;;32.78;14.60;;;;;;;13.01;71.55;97998.50;4466594;31;33221;-82
2022/03/31 09:19:29;;;;;;;31.48;15.30;;;;;;;12.80;71.95;97994.94;4489856;31;33874;-82
2022/03/31 09:21:58;;;;;;;28.23;14.23;;;;;;;12.63;72.74;97998.09;4479221;31;32039;-82
2022/03/31 09:24:28;;;;;;;26.27;14.90;;;;;;;12.40;73.78;97992.88;4493587;31;33946;-82
2022/03/31 09:26:58;;;;;;;25.88;14.65;;;;;;;12.53;73.29;97993.59;4464718;31;34363;-83
2022/03/31 09:29:28;;;;;;;27.73;15.02;;;;;;;12.54;73.51;97989.97;4464600;31;32534;-82
2022/03/31 09:32:11;;;;;;;19.37;12.90;;;;;;;12.14;75.24;97991.44;4491278;31;34215;-82
2022/03/31 09:34:44;;;;;;;28.95;13.38;;;;;;;12.51;73.68;97984.91;4463348;31;32762;-82
2022/03/31 09:37:13;;;;;;;25.92;15.02;;;;;;;12.54;73.50;97983.81;4475090;31;32943;-82
2022/03/31 09:39:41;;;;;;;23.25;14.75;;;;;;;12.41;74.26;97988.41;4471072;31;33174;-82
2022/03/31 09:42:13;;;;;;;22.13;13.48;;;;;;;12.67;73.14;97983.66;4488842;31;33341;-83
2022/03/31 09:44:42;;;;;;;33.33;14.60;;;;;;;12.14;74.48;97976.41;4477118;31;34106;-82
2022/03/31 09:47:10;;;;;;;25.05;14.85;;;;;;;12.34;74.40;97979.28;4489871;31;34018;-82
2022/03/31 09:49:39;;;;;;;27.10;13.77;;;;;;;12.29;74.19;97975.19;4476914;31;34174;-81
2022/03/31 09:52:08;;;;;;;30.37;13.68;;;;;;;12.09;74.32;97983.88;4478016;31;32569;-82
2022/03/31 09:54:36;;;;;;;24.42;13.55;;;;;;;12.52;73.06;97970.69;4477824;31;33836;-83
2022/03/31 09:57:07;;;;;;;28.15;13.93;;;;;;;12.60;73.23;97967.44;4491037;31;33686;-82
2022/03/31 09:59:40;;;;;;;31.75;13.90;;;;;;;12.35;74.15;97967.75;4487495;31;33610;-82
2022/03/31 10:02:08;;;;;;;23.85;14.50;;;;;;;12.51;73.71;97962.88;4477130;31;32984;-82
2022/03/31 10:04:35;;;;;;;22.48;13.98;;;;;;;12.45;73.30;97968.69;4474221;31;34773;-83
2022/03/31 10:07:04;;;;;;;23.83;13.88;;;;;;;12.25;74.39;97970.28;4477920;31;33359;-82
2022/03/31 10:09:33;;;;;;;26.50;14.27;;;;;;;12.70;72.45;97957.78;4493139;31;34309;-82
2022/03/31 10:12:23;;;;;;;21.30;13.18;;;;;;;12.87;71.79;97948.47;4492219;31;34061;-83
2022/03/31 10:14:55;;;;;;;26.98;14.25;;;;;;;12.60;73.16;97956.00;4493058;31;34206;-83
2022/03/31 10:17:27;;;;;;;32.00;14.95;;;;;;;12.95;71.59;97943.34;4490072;31;33478;-83
2022/03/31 10:20:14;;;;;;;25.23;14.82;;;;;;;12.59;73.54;97949.03;4476566;31;33723;-82
2022/03/31 10:25:45;;;;;;;28.08;13.32;;;;;;;12.73;72.82;97946.09;4494910;31;34522;-82
2022/03/31 10:28:15;;;;;;;23.77;12.60;;;;;;;13.10;71.27;97937.75;4479632;31;34438;-83
2022/03/31 10:30:57;;;;;;;26.50;13.68;;;;;;;13.32;70.09;97941.16;4477925;32;34007;-82
2022/03/31 10:33:38;;;;;;;23.75;13.62;;;;;;;13.22;70.66;97942.06;4491386;31;33188;-82
2022/03/31 10:36:13;;;;;;;22.15;13.02;;;;;;;12.90;71.63;97945.53;4469898;31;33126;-82
2022/03/31 10:38:57;;;;;;;26.73;14.07;;;;;;;12.67;72.48;97947.41;4474509;31;33027;-82
2022/03/31 10:41:35;;;;;;;28.90;13.73;;;;;;;13.04;71.54;97941.75;4477740;31;34273;-83
2022/03/31 10:44:12;;;;;;;29.60;14.63;;;;;;;13.20;71.13;97943.97;4487849;31;32851;-83
2022/03/31 10:46:42;;;;;;;28.33;15.75;;;;;;;12.87;72.81;97929.91;4488332;31;33776;-82
2022/03/31 10:49:13;;;;;;;25.50;14.35;;;;;;;13.08;72.53;97920.16;4477092;31;33380;-83
2022/03/31 10:51:42;;;;;;;23.50;13.68;;;;;;;13.00;72.89;97916.47;4478338;31;34329;-83
2022/03/31 10:54:14;;;;;;;30.45;14.65;;;;;;;12.82;73.76;97905.63;4476781;31;33303;-83
2022/03/31 10:56:43;;;;;;;23.70;13.65;;;;;;;12.98;73.46;97903.38;4489747;31;33483;-83
2022/03/31 10:59:12;;;;;;;27.42;15.43;;;;;;;13.21;73.28;97900.59;4489696;31;33519;-83
2022/03/31 11:01:40;;;;;;;27.85;15.18;;;;;;;12.82;74.29;97898.50;4491651;31;33841;-82
2022/03/31 11:04:10;;;;;;;28.62;14.38;;;;;;;13.23;73.09;97896.03;4491779;31;33040;-82
2022/03/31 11:06:52;;;;;;;28.30;15.18;;;;;;;13.14;73.62;97891.47;4485549;31;34540;-82
2022/03/31 11:09:20;;;;;;;25.40;14.50;;;;;;;12.75;75.59;97892.03;4488125;31;33299;-83
2022/03/31 11:11:51;;;;;;;24.95;14.48;;;;;;;13.10;74.12;97887.41;4486208;31;34610;-81
2022/03/31 11:14:19;;;;;;;23.15;12.75;;;;;;;12.76;74.73;97883.13;4491130;31;33836;-82
2022/03/31 11:16:49;;;;;;;22.33;13.05;;;;;;;13.05;74.04;97878.06;4480721;31;33827;-82
2022/03/31 11:19:20;;;;;;;29.12;13.62;;;;;;;12.82;74.91;97872.03;4477901;31;33582;-82
2022/03/31 11:21:48;;;;;;;24.87;13.40;;;;;;;12.69;75.95;97876.66;4477712;31;33503;-82
2022/03/31 11:24:23;;;;;;;29.05;14.05;;;;;;;12.67;76.43;97867.16;4486306;31;32201;-82
2022/03/31 11:26:54;;;;;;;29.92;13.95;;;;;;;12.85;75.20;97870.91;4477984;31;33395;-82
2022/03/31 11:29:26;;;;;;;27.55;14.13;;;;;;;12.70;76.10;97872.19;4490259;31;33653;-83
2022/03/31 11:31:54;;;;;;;20.90;13.62;;;;;;;12.37;77.64;97859.94;4481171;31;33718;-82
2022/03/31 11:34:25;;;;;;;29.55;14.87;;;;;;;12.50;76.71;97864.09;4478055;31;33400;-82
2022/03/31 11:36:54;;;;;;;27.02;13.90;;;;;;;12.41;77.52;97861.38;4491661;31;33779;-83